createdAt,value
2019-04-16T00:01:24.621Z,274.22
2019-04-16T00:02:55.983Z,274.21
2019-04-16T00:04:29.823Z,274.23
2019-04-16T00:06:03.822Z,274.18
2019-04-16T00:07:32.543Z,274.13
2019-04-16T00:09:03.346Z,274.13
2019-04-16T00:10:32.062Z,274.08
2019-04-16T00:12:00.783Z,274.06
2019-04-16T00:13:29.507Z,274.15
2019-04-16T00:14:58.302Z,274.12
2019-04-16T00:16:27.825Z,274.08
2019-04-16T00:17:57.825Z,274.1
2019-04-16T00:19:27.663Z,274.12
2019-04-16T00:20:56.383Z,274.13
2019-04-16T00:22:25.423Z,274.1
2019-04-16T00:23:55.107Z,274.05
2019-04-16T00:25:23.906Z,273.99
2019-04-16T00:26:57.618Z,274
2019-04-16T00:28:30.665Z,273.97
2019-04-16T00:30:03.824Z,273.88
2019-04-16T00:31:36.994Z,273.82
2019-04-16T00:33:07.483Z,273.78
2019-04-16T00:34:44.451Z,273.75
2019-04-16T00:36:15.302Z,273.75
2019-04-16T00:37:51.334Z,273.75
2019-04-16T00:39:24.240Z,273.73
2019-04-16T00:40:54.387Z,273.72
2019-04-16T00:42:23.121Z,273.69
2019-04-16T00:43:51.903Z,273.63
2019-04-16T00:45:20.621Z,273.61
2019-04-16T00:46:49.368Z,273.64
2019-04-16T00:48:18.142Z,273.62
2019-04-16T00:49:46.942Z,273.62
2019-04-16T00:51:15.787Z,273.69
2019-04-16T00:52:45.262Z,273.74
2019-04-16T00:54:16.382Z,273.65
2019-04-16T00:55:49.903Z,273.6
2019-04-16T00:57:22.862Z,273.6
2019-04-16T00:58:56.702Z,273.57
2019-04-16T01:00:27.602Z,273.57
2019-04-16T01:02:00.332Z,273.53
2019-04-16T01:03:29.982Z,273.48
2019-04-16T01:04:58.706Z,273.48
2019-04-16T01:06:27.505Z,273.5
2019-04-16T01:07:56.494Z,273.5
2019-04-16T01:09:25.263Z,273.38
2019-04-16T01:10:54.062Z,273.35
2019-04-16T01:12:22.781Z,273.33
2019-04-16T01:13:53.202Z,273.31
2019-04-16T01:15:25.985Z,273.27
2019-04-16T01:16:54.703Z,273.27
2019-04-16T01:18:23.423Z,273.27
2019-04-16T01:19:52.145Z,273.29
2019-04-16T01:21:21.099Z,273.31
2019-04-16T01:22:52.543Z,273.28
2019-04-16T01:24:24.862Z,273.21
2019-04-16T01:25:55.515Z,273.25
2019-04-16T01:27:28.502Z,273.21
2019-04-16T01:29:00.405Z,273.16
2019-04-16T01:30:36.257Z,273.14
2019-04-16T01:32:09.713Z,273.16
2019-04-16T01:33:43.371Z,273.17
2019-04-16T01:35:18.452Z,273.17
2019-04-16T01:36:48.621Z,273.2
2019-04-16T01:38:27.599Z,273.14
2019-04-16T01:39:58.387Z,273.08
2019-04-16T01:41:27.986Z,273.09
2019-04-16T01:42:59.816Z,273.1
2019-04-16T01:44:29.697Z,273.05
2019-04-16T01:46:01.243Z,272.98
2019-04-16T01:47:35.710Z,272.95
2019-04-16T01:49:09.653Z,272.95
2019-04-16T01:50:43.474Z,272.91
2019-04-16T01:52:13.259Z,272.9
2019-04-16T01:53:41.982Z,272.86
2019-04-16T01:55:10.701Z,272.82
2019-04-16T01:56:39.421Z,272.8
2019-04-16T01:58:09.021Z,272.86
2019-04-16T01:59:40.702Z,272.83
2019-04-16T02:01:11.096Z,272.8
2019-04-16T02:02:43.427Z,272.8
2019-04-16T02:04:19.491Z,272.79
2019-04-16T02:05:49.341Z,272.81
2019-04-16T02:07:18.060Z,272.79
2019-04-16T02:08:46.889Z,272.78
2019-04-16T02:10:15.902Z,272.81
2019-04-16T02:11:46.542Z,272.77
2019-04-16T02:13:19.982Z,272.72
2019-04-16T02:14:50.260Z,272.8
2019-04-16T02:16:22.299Z,272.79
2019-04-16T02:17:55.359Z,272.8
2019-04-16T02:19:32.248Z,272.74
2019-04-16T02:21:02.381Z,272.69
2019-04-16T02:22:31.982Z,272.74
2019-04-16T02:24:01.105Z,272.88
2019-04-16T02:25:29.981Z,272.85
2019-04-16T02:27:00.463Z,272.85
2019-04-16T02:28:33.182Z,272.79
2019-04-16T02:30:06.830Z,272.76
2019-04-16T02:31:35.662Z,272.7
2019-04-16T02:33:04.503Z,272.68
2019-04-16T02:34:33.423Z,272.7
2019-04-16T02:36:02.587Z,272.72
2019-04-16T02:37:36.153Z,272.75
2019-04-16T02:39:07.026Z,272.71
2019-04-16T02:40:35.829Z,272.68
2019-04-16T02:42:05.905Z,272.7
2019-04-16T02:43:39.380Z,272.64
2019-04-16T02:45:11.028Z,272.58
2019-04-16T02:46:39.825Z,272.57
2019-04-16T02:48:14.478Z,272.57
2019-04-16T02:49:46.145Z,272.6
2019-04-16T02:51:14.942Z,272.68
2019-04-16T02:52:49.964Z,272.66
2019-04-16T02:54:21.423Z,272.63
2019-04-16T02:55:50.222Z,272.67
2019-04-16T02:57:25.648Z,272.64
2019-04-16T02:58:56.785Z,272.64
2019-04-16T03:00:26.390Z,272.66
2019-04-16T03:01:57.580Z,272.71
2019-04-16T03:03:29.664Z,272.68
2019-04-16T03:05:03.505Z,272.62
2019-04-16T03:06:36.861Z,272.54
2019-04-16T03:08:09.503Z,272.54
2019-04-16T03:09:40.093Z,272.5
2019-04-16T03:11:09.826Z,272.46
2019-04-16T03:12:39.822Z,272.43
2019-04-16T03:14:09.024Z,272.39
2019-04-16T03:15:38.783Z,272.41
2019-04-16T03:17:10.037Z,272.4
2019-04-16T03:18:40.702Z,272.36
2019-04-16T03:20:09.581Z,272.33
2019-04-16T03:21:38.299Z,272.3
2019-04-16T03:23:11.583Z,272.31
2019-04-16T03:24:42.702Z,272.27
2019-04-16T03:26:16.137Z,272.26
2019-04-16T03:27:47.987Z,272.22
2019-04-16T03:29:16.864Z,272.21
2019-04-16T03:30:48.897Z,272.19
2019-04-16T03:32:19.984Z,272.18
2019-04-16T03:33:55.662Z,272.15
2019-04-16T03:35:30.621Z,272.14
2019-04-16T03:37:01.805Z,272.15
2019-04-16T03:38:36.653Z,272.14
2019-04-16T03:40:25.389Z,272.14
2019-04-16T03:41:56.784Z,272.12
2019-04-16T03:43:25.664Z,272.12
2019-04-16T03:44:54.862Z,272.12
2019-04-16T03:46:24.225Z,272.15
2019-04-16T03:47:56.142Z,272.17
2019-04-16T03:49:27.611Z,272.14
2019-04-16T03:50:57.422Z,272.11
2019-04-16T03:52:27.341Z,272.05
2019-04-16T03:53:56.141Z,272.02
2019-04-16T03:55:30.301Z,272.01
2019-04-16T03:57:02.043Z,271.99
2019-04-16T03:58:31.825Z,271.96
2019-04-16T04:00:00.832Z,271.93
2019-04-16T04:01:29.821Z,271.92
2019-04-16T04:03:00.302Z,271.92
2019-04-16T04:04:34.300Z,271.91
2019-04-16T04:06:03.462Z,271.91
2019-04-16T04:07:38.328Z,271.89
2019-04-16T04:09:07.404Z,271.89
2019-04-16T04:10:41.662Z,271.88
2019-04-16T04:12:12.720Z,271.86
2019-04-16T04:13:49.644Z,271.84
2019-04-16T04:15:20.064Z,271.87
2019-04-16T04:16:48.783Z,271.97
2019-04-16T04:18:18.342Z,272.01
2019-04-16T04:19:51.025Z,272.02
2019-04-16T04:21:21.996Z,272.05
2019-04-16T04:22:51.500Z,272.04
2019-04-16T04:24:21.182Z,272.01
2019-04-16T04:25:50.062Z,271.98
2019-04-16T04:27:23.181Z,271.97
2019-04-16T04:28:56.310Z,271.97
2019-04-16T04:30:28.397Z,271.96
2019-04-16T04:32:02.992Z,271.95
2019-04-16T04:33:33.101Z,271.96
2019-04-16T04:35:01.825Z,271.97
2019-04-16T04:36:33.102Z,271.98
2019-04-16T04:38:03.942Z,272.01
2019-04-16T04:39:33.902Z,272.03
2019-04-16T04:41:06.273Z,272.01
2019-04-16T04:42:35.901Z,272
2019-04-16T04:44:09.020Z,271.99
2019-04-16T04:45:40.655Z,272
2019-04-16T04:47:10.700Z,272.01
2019-04-16T04:48:40.301Z,272
2019-04-16T04:50:10.781Z,271.98
2019-04-16T04:51:43.820Z,271.98
2019-04-16T04:53:15.556Z,271.99
2019-04-16T04:54:51.295Z,272.01
2019-04-16T04:56:27.629Z,272.02
2019-04-16T04:58:02.443Z,272.03
2019-04-16T04:59:36.438Z,272.06
2019-04-16T05:01:06.302Z,272.07
2019-04-16T05:02:35.021Z,272.1
2019-04-16T05:04:07.105Z,272.13
2019-04-16T05:05:37.185Z,272.15
2019-04-16T05:07:05.901Z,272.17
2019-04-16T05:08:35.259Z,272.2
2019-04-16T05:10:04.528Z,272.22
2019-04-16T05:11:37.500Z,272.26
2019-04-16T05:13:06.218Z,272.28
2019-04-16T05:14:34.941Z,272.31
2019-04-16T05:16:07.605Z,272.34
2019-04-16T05:17:38.389Z,272.38
2019-04-16T05:19:13.722Z,272.43
2019-04-16T05:20:46.930Z,272.47
2019-04-16T05:22:20.538Z,272.52
2019-04-16T05:23:51.180Z,272.58
2019-04-16T05:25:20.219Z,272.64
2019-04-16T05:26:51.099Z,272.67
2019-04-16T05:28:19.820Z,272.72
2019-04-16T05:29:49.488Z,272.77
2019-04-16T05:31:24.075Z,272.84
2019-04-16T05:32:54.941Z,272.9
2019-04-16T05:34:25.422Z,272.97
2019-04-16T05:35:54.220Z,273.03
2019-04-16T05:37:25.180Z,273.11
2019-04-16T05:38:55.679Z,273.17
2019-04-16T05:40:27.551Z,273.24
2019-04-16T05:42:04.059Z,273.33
2019-04-16T05:43:35.819Z,273.4
2019-04-16T05:45:07.579Z,273.46
2019-04-16T05:46:38.317Z,273.53
2019-04-16T05:48:14.941Z,273.63
2019-04-16T05:49:43.660Z,273.71
2019-04-16T05:51:12.596Z,273.79
2019-04-16T05:52:41.739Z,273.86
2019-04-16T05:54:16.618Z,273.9
2019-04-16T05:55:49.325Z,273.96
2019-04-16T05:57:19.419Z,274.08
2019-04-16T05:58:49.409Z,274.19
2019-04-16T06:00:18.292Z,274.25
2019-04-16T06:01:50.386Z,274.32
2019-04-16T06:03:21.596Z,274.4
2019-04-16T06:04:55.565Z,274.46
2019-04-16T06:06:25.339Z,274.54
2019-04-16T06:07:54.937Z,274.67
2019-04-16T06:09:24.379Z,274.76
2019-04-16T06:10:57.534Z,274.83
2019-04-16T06:12:26.754Z,274.91
2019-04-16T06:13:56.781Z,275.03
2019-04-16T06:15:27.419Z,275.14
2019-04-16T06:17:01.587Z,275.2
2019-04-16T06:18:30.305Z,275.28
2019-04-16T06:19:59.901Z,275.44
2019-04-16T06:21:31.501Z,275.61
2019-04-16T06:23:05.740Z,275.77
2019-04-16T06:24:35.742Z,275.84
2019-04-16T06:26:05.101Z,275.82
2019-04-16T06:27:33.821Z,275.93
2019-04-16T06:29:05.181Z,276.18
2019-04-16T06:30:38.223Z,276.39
2019-04-16T06:32:08.334Z,276.58
2019-04-16T06:33:40.941Z,276.61
2019-04-16T06:35:09.823Z,276.82
2019-04-16T06:36:39.340Z,276.85
2019-04-16T06:38:08.143Z,276.87
2019-04-16T06:39:36.863Z,276.86
2019-04-16T06:41:09.052Z,276.94
2019-04-16T06:42:38.547Z,277.12
2019-04-16T06:44:09.105Z,277.24
2019-04-16T06:45:41.663Z,277.4
2019-04-16T06:47:11.057Z,277.51
2019-04-16T06:48:42.428Z,277.57
2019-04-16T06:50:29.489Z,277.64
2019-04-16T06:52:09.345Z,277.64
2019-04-16T06:53:38.063Z,277.71
2019-04-16T06:55:09.264Z,277.81
2019-04-16T06:56:45.034Z,277.8
2019-04-16T06:58:16.190Z,277.84
2019-04-16T06:59:48.386Z,277.89
2019-04-16T07:01:17.986Z,277.98
2019-04-16T07:03:02.068Z,278.11
2019-04-16T07:04:35.509Z,278.17
2019-04-16T07:06:09.027Z,278.14
2019-04-16T07:07:46.711Z,278.23
2019-04-16T07:09:15.946Z,278.36
2019-04-16T07:10:49.905Z,278.53
2019-04-16T07:12:18.706Z,278.69
2019-04-16T07:13:48.032Z,278.89
2019-04-16T07:15:22.033Z,278.92
2019-04-16T07:17:00.096Z,278.82
2019-04-16T07:18:29.993Z,278.75
2019-04-16T07:19:58.829Z,278.75
2019-04-16T07:21:27.830Z,278.79
2019-04-16T07:22:58.468Z,278.95
2019-04-16T07:24:30.516Z,279.19
2019-04-16T07:26:13.347Z,279.16
2019-04-16T07:27:44.871Z,279.22
2019-04-16T07:29:15.297Z,279.31
2019-04-16T07:30:45.868Z,279.35
2019-04-16T07:32:15.460Z,279.42
2019-04-16T07:33:45.349Z,279.47
2019-04-16T07:35:14.070Z,279.59
2019-04-16T07:36:43.030Z,279.79
2019-04-16T07:38:12.551Z,279.88
2019-04-16T07:39:42.791Z,279.99
2019-04-16T07:41:17.090Z,279.97
2019-04-16T07:42:58.852Z,279.92
2019-04-16T07:44:29.271Z,280.01
2019-04-16T07:45:58.872Z,280.21
2019-04-16T07:47:27.671Z,280.33
2019-04-16T07:48:59.349Z,280.31
2019-04-16T07:50:29.461Z,280.46
2019-04-16T07:52:06.931Z,280.64
2019-04-16T07:53:41.032Z,280.7
2019-04-16T07:55:09.754Z,280.72
2019-04-16T07:56:38.470Z,280.65
2019-04-16T07:58:07.339Z,280.74
2019-04-16T07:59:37.830Z,280.84
2019-04-16T08:01:11.060Z,280.93
2019-04-16T08:02:45.268Z,281.06
2019-04-16T08:04:14.308Z,281.18
2019-04-16T08:05:51.902Z,281.24
2019-04-16T08:07:25.425Z,281.34
2019-04-16T08:08:57.045Z,281.34
2019-04-16T08:10:27.346Z,281.26
2019-04-16T08:11:56.141Z,281.32
2019-04-16T08:13:24.863Z,281.51
2019-04-16T08:14:53.581Z,281.61
2019-04-16T08:16:23.183Z,281.7
2019-04-16T08:17:51.901Z,281.81
2019-04-16T08:19:21.266Z,281.93
2019-04-16T08:21:13.900Z,282.04
2019-04-16T08:22:47.500Z,282.04
2019-04-16T08:24:16.940Z,282.09
2019-04-16T08:25:45.980Z,282.21
2019-04-16T08:27:18.921Z,282.29
2019-04-16T08:28:48.461Z,282.41
2019-04-16T08:30:17.263Z,282.51
2019-04-16T08:31:49.501Z,282.57
2019-04-16T08:33:18.540Z,282.67
2019-04-16T08:34:47.578Z,282.71
2019-04-16T08:36:16.701Z,282.83
2019-04-16T08:37:54.140Z,282.84
2019-04-16T08:39:23.262Z,282.95
2019-04-16T08:40:52.941Z,283.06
2019-04-16T08:42:24.679Z,283.14
2019-04-16T08:44:15.262Z,283.21
2019-04-16T08:45:45.021Z,283.27
2019-04-16T08:47:17.820Z,283.35
2019-04-16T08:48:49.215Z,283.41
2019-04-16T08:50:25.760Z,283.44
2019-04-16T08:51:55.740Z,283.52
2019-04-16T08:53:24.460Z,283.57
2019-04-16T08:54:55.900Z,283.61
2019-04-16T08:56:24.620Z,283.64
2019-04-16T08:57:53.428Z,283.75
2019-04-16T08:59:22.621Z,283.79
2019-04-16T09:00:52.701Z,283.83
2019-04-16T09:02:23.454Z,283.94
2019-04-16T09:04:01.173Z,284.07
2019-04-16T09:05:31.981Z,284.1
2019-04-16T09:07:19.791Z,284.24
2019-04-16T09:08:53.029Z,284.4
2019-04-16T09:10:29.906Z,284.45
2019-04-16T09:11:59.899Z,284.53
2019-04-16T09:13:28.620Z,284.58
2019-04-16T09:15:01.189Z,284.56
2019-04-16T09:16:29.900Z,284.75
2019-04-16T09:17:58.622Z,284.85
2019-04-16T09:19:27.797Z,284.86
2019-04-16T09:20:56.622Z,285.07
2019-04-16T09:22:25.342Z,285.13
2019-04-16T09:23:55.903Z,285.22
2019-04-16T09:25:39.101Z,285.31
2019-04-16T09:27:07.984Z,285.37
2019-04-16T09:28:37.100Z,285.47
2019-04-16T09:30:05.819Z,285.46
2019-04-16T09:31:34.541Z,285.51
2019-04-16T09:33:06.782Z,285.57
2019-04-16T09:34:39.146Z,285.68
2019-04-16T09:36:09.181Z,285.76
2019-04-16T09:37:40.939Z,285.78
2019-04-16T09:39:09.819Z,285.85
2019-04-16T09:40:38.862Z,285.85
2019-04-16T09:42:07.584Z,285.89
2019-04-16T09:43:40.054Z,286.02
2019-04-16T09:45:10.703Z,286.14
2019-04-16T09:46:59.361Z,286.21
2019-04-16T09:48:34.064Z,286.3
2019-04-16T09:50:09.537Z,286.38
2019-04-16T09:51:40.381Z,286.35
2019-04-16T09:53:09.313Z,286.46
2019-04-16T09:54:38.187Z,286.47
2019-04-16T09:56:06.944Z,286.51
2019-04-16T09:57:37.347Z,286.6
2019-04-16T09:59:07.028Z,286.65
2019-04-16T10:00:35.881Z,286.7
2019-04-16T10:02:04.704Z,286.79
2019-04-16T10:03:33.984Z,286.87
2019-04-16T10:05:02.705Z,286.99
2019-04-16T10:06:32.384Z,287.12
2019-04-16T10:08:02.144Z,287.19
2019-04-16T10:09:31.103Z,287.32
2019-04-16T10:11:06.150Z,287.35
2019-04-16T10:12:35.503Z,287.38
2019-04-16T10:14:04.395Z,287.44
2019-04-16T10:15:33.207Z,287.46
2019-04-16T10:17:02.942Z,287.47
2019-04-16T10:18:35.052Z,287.46
2019-04-16T10:20:04.942Z,287.39
2019-04-16T10:21:34.396Z,287.44
2019-04-16T10:23:04.082Z,287.48
2019-04-16T10:24:32.950Z,287.56
2019-04-16T10:26:01.843Z,287.59
2019-04-16T10:27:32.219Z,287.63
2019-04-16T10:29:01.421Z,287.77
2019-04-16T10:30:30.402Z,287.74
2019-04-16T10:31:59.365Z,287.78
2019-04-16T10:33:28.322Z,287.87
2019-04-16T10:34:57.662Z,287.98
2019-04-16T10:36:26.478Z,288.04
2019-04-16T10:37:55.267Z,288.06
2019-04-16T10:39:24.552Z,288.1
2019-04-16T10:40:53.455Z,288.13
2019-04-16T10:42:22.335Z,288.19
2019-04-16T10:43:51.357Z,288.23
2019-04-16T10:45:20.223Z,288.24
2019-04-16T10:46:50.156Z,288.27
2019-04-16T10:48:19.024Z,288.31
2019-04-16T10:49:48.371Z,288.29
2019-04-16T10:51:20.412Z,288.32
2019-04-16T10:52:51.392Z,288.45
2019-04-16T10:54:25.101Z,288.5
2019-04-16T10:55:53.903Z,288.51
2019-04-16T10:57:22.703Z,288.58
2019-04-16T10:58:51.673Z,288.69
2019-04-16T11:00:20.561Z,288.84
2019-04-16T11:01:49.661Z,288.92
2019-04-16T11:03:18.544Z,288.94
2019-04-16T11:04:48.864Z,288.93
2019-04-16T11:06:17.662Z,288.88
2019-04-16T11:07:46.462Z,288.87
2019-04-16T11:09:15.580Z,288.98
2019-04-16T11:10:44.864Z,289.04
2019-04-16T11:12:14.622Z,288.97
2019-04-16T11:13:58.290Z,288.99
2019-04-16T11:15:29.501Z,288.95
2019-04-16T11:16:58.342Z,289
2019-04-16T11:18:27.117Z,289.11
2019-04-16T11:20:00.104Z,289.22
2019-04-16T11:21:29.181Z,289.29
2019-04-16T11:22:58.063Z,289.3
2019-04-16T11:24:26.885Z,289.35
2019-04-16T11:25:56.701Z,289.42
2019-04-16T11:27:25.501Z,289.48
2019-04-16T11:28:54.301Z,289.53
2019-04-16T11:30:23.180Z,289.65
2019-04-16T11:31:52.968Z,289.82
2019-04-16T11:33:21.935Z,289.79
2019-04-16T11:34:51.662Z,289.79
2019-04-16T11:36:30.507Z,289.89
2019-04-16T11:38:00.654Z,289.96
2019-04-16T11:39:29.614Z,289.93
2019-04-16T11:40:59.299Z,289.87
2019-04-16T11:42:28.811Z,289.89
2019-04-16T11:43:57.933Z,289.87
2019-04-16T11:45:27.783Z,289.77
2019-04-16T11:46:56.653Z,289.77
2019-04-16T11:48:25.509Z,289.92
2019-04-16T11:49:54.302Z,290.08
2019-04-16T11:51:23.240Z,290.08
2019-04-16T11:52:57.076Z,290.05
2019-04-16T11:54:27.448Z,290.04
2019-04-16T11:55:56.404Z,290.13
2019-04-16T11:57:25.261Z,290.18
2019-04-16T11:58:57.262Z,290.23
2019-04-16T12:00:26.704Z,290.32
2019-04-16T12:01:55.606Z,290.46
2019-04-16T12:03:24.471Z,290.58
2019-04-16T12:04:57.301Z,290.61
2019-04-16T12:06:33.685Z,290.65
2019-04-16T12:08:02.591Z,290.71
2019-04-16T12:09:32.385Z,290.65
2019-04-16T12:11:02.278Z,290.75
2019-04-16T12:12:31.304Z,290.69
2019-04-16T12:14:00.255Z,290.7
2019-04-16T12:15:29.182Z,290.66
2019-04-16T12:16:58.169Z,290.65
2019-04-16T12:18:31.622Z,290.66
2019-04-16T12:20:01.237Z,290.6
2019-04-16T12:21:31.997Z,290.57
2019-04-16T12:23:01.898Z,290.54
2019-04-16T12:24:30.954Z,290.54
2019-04-16T12:25:59.822Z,290.57
2019-04-16T12:27:28.826Z,290.56
2019-04-16T12:28:57.670Z,290.56
2019-04-16T12:30:26.557Z,290.55
2019-04-16T12:31:57.022Z,290.63
2019-04-16T12:33:25.916Z,290.65
2019-04-16T12:34:56.422Z,290.67
2019-04-16T12:36:25.342Z,290.65
2019-04-16T12:37:54.639Z,290.75
2019-04-16T12:39:24.794Z,290.88
2019-04-16T12:40:53.666Z,290.96
2019-04-16T12:42:22.574Z,291.03
2019-04-16T12:43:55.908Z,291.1
2019-04-16T12:45:25.029Z,291.01
2019-04-16T12:46:53.900Z,291.04
2019-04-16T12:48:22.737Z,291.09
2019-04-16T12:49:51.706Z,291.32
2019-04-16T12:51:20.586Z,291.28
2019-04-16T12:52:51.893Z,291.35
2019-04-16T12:54:25.448Z,291.34
2019-04-16T12:55:55.219Z,291.43
2019-04-16T12:57:24.064Z,291.47
2019-04-16T12:58:55.662Z,291.59
2019-04-16T13:00:27.300Z,291.51
2019-04-16T13:02:00.745Z,291.47
2019-04-16T13:03:29.580Z,291.39
2019-04-16T13:04:59.101Z,291.38
2019-04-16T13:06:31.261Z,291.52
2019-04-16T13:08:00.509Z,291.55
2019-04-16T13:09:30.303Z,291.6
2019-04-16T13:10:59.020Z,291.58
2019-04-16T13:12:32.304Z,291.65
2019-04-16T13:14:03.586Z,291.65
2019-04-16T13:15:32.862Z,291.81
2019-04-16T13:17:01.696Z,291.88
2019-04-16T13:18:30.463Z,291.98
2019-04-16T13:20:00.073Z,291.94
2019-04-16T13:21:28.944Z,291.99
2019-04-16T13:22:58.462Z,292.12
2019-04-16T13:24:27.825Z,292.11
2019-04-16T13:25:56.623Z,292.19
2019-04-16T13:27:26.781Z,292.14
2019-04-16T13:29:00.329Z,292.04
2019-04-16T13:30:29.111Z,292.05
2019-04-16T13:31:57.827Z,291.97
2019-04-16T13:33:26.703Z,292.06
2019-04-16T13:34:58.109Z,292.06
2019-04-16T13:36:32.106Z,292.12
2019-04-16T13:38:00.871Z,292.16
2019-04-16T13:39:29.823Z,292.28
2019-04-16T13:41:01.352Z,292.5
2019-04-16T13:42:31.503Z,292.52
2019-04-16T13:44:07.871Z,292.41
2019-04-16T13:45:38.702Z,292.38
2019-04-16T13:47:08.946Z,292.43
2019-04-16T13:48:37.668Z,292.42
2019-04-16T13:50:09.262Z,292.4
2019-04-16T13:51:37.985Z,292.3
2019-04-16T13:53:06.781Z,292.34
2019-04-16T13:54:40.541Z,292.3
2019-04-16T13:56:09.258Z,292.29
2019-04-16T13:57:37.983Z,292.31
2019-04-16T13:59:06.781Z,292.38
2019-04-16T14:00:36.323Z,292.55
2019-04-16T14:02:05.900Z,292.74
2019-04-16T14:03:34.702Z,292.75
2019-04-16T14:05:10.676Z,292.71
2019-04-16T14:06:40.622Z,292.64
2019-04-16T14:08:10.381Z,292.51
2019-04-16T14:09:44.017Z,292.51
2019-04-16T14:11:16.453Z,292.47
2019-04-16T14:12:50.064Z,292.53
2019-04-16T14:14:23.259Z,292.62
2019-04-16T14:15:52.061Z,292.58
2019-04-16T14:17:23.500Z,292.47
2019-04-16T14:18:52.702Z,292.52
2019-04-16T14:20:21.421Z,292.55
2019-04-16T14:21:50.779Z,292.65
2019-04-16T14:23:20.380Z,292.79
2019-04-16T14:24:49.985Z,292.86
2019-04-16T14:26:18.703Z,292.97
2019-04-16T14:27:47.421Z,292.97
2019-04-16T14:29:16.143Z,292.79
2019-04-16T14:30:48.380Z,292.81
2019-04-16T14:32:17.101Z,292.72
2019-04-16T14:33:45.821Z,292.71
2019-04-16T14:35:14.544Z,292.77
2019-04-16T14:36:43.663Z,292.83
2019-04-16T14:38:12.461Z,292.77
2019-04-16T14:39:41.342Z,292.82
2019-04-16T14:41:11.862Z,292.85
2019-04-16T14:42:44.861Z,292.9
2019-04-16T14:44:14.700Z,293.01
2019-04-16T14:46:01.820Z,293.09
2019-04-16T14:47:32.946Z,293.16
2019-04-16T14:49:07.021Z,293.17
2019-04-16T14:50:38.141Z,293.18
2019-04-16T14:52:08.621Z,293.23
2019-04-16T14:53:37.343Z,293.22
2019-04-16T14:55:06.141Z,293.36
2019-04-16T14:56:34.867Z,293.48
2019-04-16T14:58:03.583Z,293.42
2019-04-16T14:59:39.425Z,293.3
2019-04-16T15:01:08.222Z,293.29
2019-04-16T15:02:36.943Z,293.28
2019-04-16T15:04:05.822Z,293.26
2019-04-16T15:05:34.701Z,293.27
2019-04-16T15:07:32.289Z,293.26
2019-04-16T15:09:10.444Z,293.35
2019-04-16T15:10:55.592Z,293.45
2019-04-16T15:21:42.859Z,293.01
2019-04-16T15:23:12.942Z,292.84
2019-04-16T15:24:41.664Z,292.83
2019-04-16T15:26:10.383Z,292.86
2019-04-16T15:27:39.105Z,292.84
2019-04-16T15:29:07.824Z,292.85
2019-04-16T15:30:36.542Z,292.85
2019-04-16T15:32:09.504Z,292.7
2019-04-16T15:33:40.861Z,292.56
2019-04-16T15:35:13.795Z,292.53
2019-04-16T15:36:43.825Z,292.55
2019-04-16T15:38:14.225Z,292.55
2019-04-16T15:39:42.945Z,292.62
2019-04-16T15:41:17.624Z,292.68
2019-04-16T15:42:48.308Z,292.76
2019-04-16T15:44:22.308Z,292.7
2019-04-16T15:45:52.787Z,292.58
2019-04-16T15:47:21.745Z,292.51
2019-04-16T15:48:55.504Z,292.44
2019-04-16T15:50:24.222Z,292.37
2019-04-16T15:51:56.471Z,292.34
2019-04-16T15:53:25.283Z,292.28
2019-04-16T15:54:54.552Z,292.23
2019-04-16T15:56:24.222Z,292.27
2019-04-16T15:57:52.941Z,292.25
2019-04-16T15:59:22.543Z,292.28
2019-04-16T16:00:51.260Z,292.35
2019-04-16T16:02:19.982Z,292.37
2019-04-16T16:03:48.702Z,292.36
2019-04-16T16:05:18.460Z,292.41
2019-04-16T16:06:48.741Z,292.43
2019-04-16T16:08:22.062Z,292.41
2019-04-16T16:09:50.784Z,292.46
2019-04-16T16:11:22.383Z,292.34
2019-04-16T16:12:53.582Z,292.24
2019-04-16T16:14:24.305Z,292.19
2019-04-16T16:15:53.102Z,292.2
2019-04-16T16:17:27.031Z,292.36
2019-04-16T16:18:55.986Z,292.39
2019-04-16T16:20:24.702Z,292.44
2019-04-16T16:21:53.426Z,292.46
2019-04-16T16:23:22.945Z,292.47
2019-04-16T16:24:51.743Z,292.41
2019-04-16T16:26:20.544Z,292.38
2019-04-16T16:27:52.147Z,292.31
2019-04-16T16:29:20.863Z,292.33
2019-04-16T16:30:49.586Z,292.44
2019-04-16T16:32:18.384Z,292.55
2019-04-16T16:33:47.103Z,292.47
2019-04-16T16:35:22.067Z,292.4
2019-04-16T16:36:50.783Z,292.52
2019-04-16T16:38:20.901Z,292.51
2019-04-16T16:39:50.065Z,292.49
2019-04-16T16:41:18.862Z,292.22
2019-04-16T16:42:47.583Z,292.02
2019-04-16T16:44:16.304Z,292.07
2019-04-16T16:45:45.265Z,292.06
2019-04-16T16:47:13.982Z,292.08
2019-04-16T16:48:44.466Z,292.04
2019-04-16T16:50:16.387Z,291.92
2019-04-16T16:51:46.063Z,291.89
2019-04-16T16:53:16.065Z,291.93
2019-04-16T16:54:44.783Z,291.95
2019-04-16T16:56:13.724Z,291.79
2019-04-16T16:57:42.781Z,291.74
2019-04-16T16:59:11.504Z,291.63
2019-04-16T17:00:41.024Z,291.53
2019-04-16T17:02:15.263Z,291.39
2019-04-16T17:03:43.984Z,291.16
2019-04-16T17:05:14.623Z,291.05
2019-04-16T17:06:43.342Z,291.14
2019-04-16T17:08:12.144Z,291.15
2019-04-16T17:09:40.944Z,291.12
2019-04-16T17:11:21.504Z,291.13
2019-04-16T17:12:51.502Z,291.1
2019-04-16T17:14:21.580Z,291.03
2019-04-16T17:15:50.302Z,290.96
2019-04-16T17:17:20.221Z,290.9
2019-04-16T17:18:50.701Z,290.84
2019-04-16T17:20:19.502Z,290.79
2019-04-16T17:21:48.222Z,290.72
2019-04-16T17:23:25.292Z,290.65
2019-04-16T17:24:55.423Z,290.58
2019-04-16T17:26:24.150Z,290.53
2019-04-16T17:27:56.786Z,290.44
2019-04-16T17:29:25.503Z,290.38
2019-04-16T17:30:54.462Z,290.28
2019-04-16T17:32:23.183Z,290.25
2019-04-16T17:33:51.902Z,290.22
2019-04-16T17:35:20.943Z,290.1
2019-04-16T17:36:49.824Z,290
2019-04-16T17:38:18.623Z,289.91
2019-04-16T17:39:48.383Z,289.84
2019-04-16T17:41:17.102Z,289.77
2019-04-16T17:42:48.461Z,289.68
2019-04-16T17:44:19.828Z,289.49
2019-04-16T17:45:48.622Z,289.38
2019-04-16T17:47:35.824Z,289.33
2019-04-16T17:49:04.790Z,289.17
2019-04-16T17:50:33.528Z,289.05
2019-04-16T17:52:02.302Z,288.98
2019-04-16T17:53:31.101Z,288.88
2019-04-16T17:54:59.818Z,288.83
2019-04-16T17:56:29.503Z,288.77
2019-04-16T17:57:58.223Z,288.77
2019-04-16T17:59:34.304Z,288.71
2019-04-16T18:01:04.228Z,288.62
2019-04-16T18:02:35.901Z,288.49
2019-04-16T18:04:04.622Z,288.33
2019-04-16T18:05:33.341Z,288.12
2019-04-16T18:07:02.780Z,287.9
2019-04-16T18:08:31.501Z,287.92
2019-04-16T18:10:05.742Z,287.85
2019-04-16T18:11:34.460Z,287.8
2019-04-16T18:13:06.521Z,287.79
2019-04-16T18:14:37.340Z,287.87
2019-04-16T18:16:06.116Z,287.97
2019-04-16T18:17:51.289Z,288.02
2019-04-16T18:19:20.215Z,288.03
2019-04-16T18:21:01.821Z,288.03
2019-04-16T18:22:30.539Z,287.9
2019-04-16T18:23:59.341Z,287.73
2019-04-16T18:25:28.631Z,287.6
2019-04-16T18:26:57.421Z,287.53
2019-04-16T18:28:26.143Z,287.5
2019-04-16T18:29:56.701Z,287.31
2019-04-16T18:31:28.461Z,287.33
2019-04-16T18:32:59.421Z,287.33
2019-04-16T18:34:28.300Z,287.29
2019-04-16T18:35:57.021Z,287.32
2019-04-16T18:37:29.820Z,287.27
2019-04-16T18:39:05.310Z,287.21
2019-04-16T18:40:34.702Z,287.12
2019-04-16T18:42:03.422Z,286.86
2019-04-16T18:43:32.220Z,286.77
2019-04-16T18:45:01.662Z,286.65
2019-04-16T18:46:32.142Z,286.61
2019-04-16T18:48:13.712Z,286.6
2019-04-16T18:49:43.026Z,286.3
2019-04-16T18:51:11.744Z,286.24
2019-04-16T18:52:41.824Z,286.19
2019-04-16T18:54:10.742Z,286.13
2019-04-16T18:55:40.867Z,286.19
2019-04-16T18:57:09.833Z,286.18
2019-04-16T18:58:41.536Z,285.88
2019-04-16T19:00:11.672Z,285.86
2019-04-16T19:01:40.392Z,285.97
2019-04-16T19:03:14.566Z,285.99
2019-04-16T19:04:45.034Z,285.79
2019-04-16T19:06:13.753Z,285.74
2019-04-16T19:07:43.444Z,285.71
2019-04-16T19:09:12.237Z,285.61